sensor_id;sensor_type;location;lat;lon;timestamp;pressure;altitude;pressure_sealevel;temperature;humidity
38038;BME280;23843;51.320;12.340;2022-11-21T05:32:07;99111.69;;;1.36;99.50
38038;BME280;23843;51.320;12.340;2022-11-21T05:34:32;99110.09;;;1.32;100.00
38038;BME280;23843;51.320;12.340;2022-11-21T05:36:58;99114.56;;;1.30;100.00
38038;BME280;23843;51.320;12.340;2022-11-21T05:39:24;99123.34;;;1.27;99.63
38038;BME280;23843;51.320;12.340;2022-11-21T05:41:49;99127.63;;;1.28;100.00
38038;BME280;23843;51.320;12.340;2022-11-21T05:44:15;99131.25;;;1.24;100.00
38038;BME280;23843;51.320;12.340;2022-11-21T05:46:40;99121.69;;;1.24;100.00
38038;BME280;23843;51.320;12.340;2022-11-21T05:49:07;99126.78;;;1.27;100.00
38038;BME280;23843;51.320;12.340;2022-11-21T05:51:32;99130.09;;;1.33;100.00
38038;BME280;23843;51.320;12.340;2022-11-21T05:53:58;99142.22;;;1.34;100.00
38038;BME280;23843;51.320;12.340;2022-11-21T05:56:24;99140.34;;;1.37;100.00
38038;BME280;23843;51.320;12.340;2022-11-21T05:58:50;99142.81;;;1.42;100.00
38038;BME280;23843;51.320;12.340;2022-11-21T06:01:15;99145.25;;;1.46;100.00
38038;BME280;23843;51.320;12.340;2022-11-21T06:03:41;99149.50;;;1.49;100.00
38038;BME280;23843;51.320;12.340;2022-11-21T06:06:09;99160.03;;;1.46;100.00
38038;BME280;23843;51.320;12.340;2022-11-21T06:08:37;99165.41;;;1.41;100.00
38038;BME280;23843;51.320;12.340;2022-11-21T06:11:03;99170.31;;;1.27;99.00
38038;BME280;23843;51.320;12.340;2022-11-21T06:13:29;99186.84;;;1.26;99.72
38038;BME280;23843;51.320;12.340;2022-11-21T06:15:58;99190.28;;;1.26;99.99
38038;BME280;23843;51.320;12.340;2022-11-21T06:18:24;99196.44;;;1.25;100.00
38038;BME280;23843;51.320;12.340;2022-11-21T06:20:50;99200.81;;;1.25;99.92
38038;BME280;23843;51.320;12.340;2022-11-21T06:23:17;99205.09;;;1.26;99.84
38038;BME280;23843;51.320;12.340;2022-11-21T06:25:43;99204.94;;;1.31;100.00
38038;BME280;23843;51.320;12.340;2022-11-21T06:28:08;99207.59;;;1.29;100.00
38038;BME280;23843;51.320;12.340;2022-11-21T06:30:34;99209.38;;;1.28;100.00
38038;BME280;23843;51.320;12.340;2022-11-21T06:33:01;99218.03;;;1.29;100.00
38038;BME280;23843;51.320;12.340;2022-11-21T06:35:26;99214.66;;;1.27;99.10
38038;BME280;23843;51.320;12.340;2022-11-21T06:37:52;99227.94;;;1.19;99.03
38038;BME280;23843;51.320;12.340;2022-11-21T06:40:19;99234.19;;;1.15;99.01
38038;BME280;23843;51.320;12.340;2022-11-21T06:42:44;99243.59;;;1.19;99.64
38038;BME280;23843;51.320;12.340;2022-11-21T06:45:09;99252.31;;;1.18;98.89
38038;BME280;23843;51.320;12.340;2022-11-21T06:47:35;99248.72;;;1.22;100.00
38038;BME280;23843;51.320;12.340;2022-11-21T06:50:00;99251.53;;;1.16;99.45
38038;BME280;23843;51.320;12.340;2022-11-21T06:52:26;99261.25;;;1.11;99.26
38038;BME280;23843;51.320;12.340;2022-11-21T06:54:51;99263.06;;;1.09;99.58
38038;BME280;23843;51.320;12.340;2022-11-21T06:57:18;99268.16;;;1.12;99.79
38038;BME280;23843;51.320;12.340;2022-11-21T06:59:43;99273.50;;;1.09;99.11
38038;BME280;23843;51.320;12.340;2022-11-21T07:02:10;99274.31;;;1.11;99.42
38038;BME280;23843;51.320;12.340;2022-11-21T07:04:36;99278.72;;;1.09;100.00
38038;BME280;23843;51.320;12.340;2022-11-21T07:07:01;99282.03;;;1.14;99.54
38038;BME280;23843;51.320;12.340;2022-11-21T07:09:27;99281.06;;;1.17;100.00
38038;BME280;23843;51.320;12.340;2022-11-21T07:11:52;99288.69;;;1.23;100.00
38038;BME280;23843;51.320;12.340;2022-11-21T07:14:19;99286.94;;;1.23;99.68
38038;BME280;23843;51.320;12.340;2022-11-21T07:16:45;99293.78;;;1.27;100.00
38038;BME280;23843;51.320;12.340;2022-11-21T07:19:10;99292.03;;;1.26;99.79
38038;BME280;23843;51.320;12.340;2022-11-21T07:21:36;99292.03;;;1.26;99.31
38038;BME280;23843;51.320;12.340;2022-11-21T07:24:01;99297.19;;;1.30;99.84
38038;BME280;23843;51.320;12.340;2022-11-21T07:26:27;99307.66;;;1.28;100.00
38038;BME280;23843;51.320;12.340;2022-11-21T07:28:52;99312.78;;;1.31;99.52
38038;BME280;23843;51.320;12.340;2022-11-21T07:31:19;99307.50;;;1.33;98.83
38038;BME280;23843;51.320;12.340;2022-11-21T07:33:45;99309.34;;;1.29;98.92
38038;BME280;23843;51.320;12.340;2022-11-21T07:36:10;99312.63;;;1.36;100.00
38038;BME280;23843;51.320;12.340;2022-11-21T07:38:36;99317.50;;;1.46;100.00
38038;BME280;23843;51.320;12.340;2022-11-21T07:41:01;99314.81;;;1.48;99.08
38038;BME280;23843;51.320;12.340;2022-11-21T07:43:27;99317.44;;;1.48;99.79
38038;BME280;23843;51.320;12.340;2022-11-21T07:45:52;99324.38;;;1.49;99.14
38038;BME280;23843;51.320;12.340;2022-11-21T07:48:19;99323.41;;;1.52;99.68
38038;BME280;23843;51.320;12.340;2022-11-21T07:50:44;99328.63;;;1.52;99.05
38038;BME280;23843;51.320;12.340;2022-11-21T07:53:10;99332.13;;;1.50;98.40
38038;BME280;23843;51.320;12.340;2022-11-21T07:55:36;99327.84;;;1.49;99.13
38038;BME280;23843;51.320;12.340;2022-11-21T07:58:03;99337.16;;;1.57;100.00
38038;BME280;23843;51.320;12.340;2022-11-21T08:00:30;99339.63;;;1.61;99.70
38038;BME280;23843;51.320;12.340;2022-11-21T08:02:56;99342.38;;;1.57;98.18
38038;BME280;23843;51.320;12.340;2022-11-21T08:05:23;99341.84;;;1.47;96.86
38038;BME280;23843;51.320;12.340;2022-11-21T08:07:48;99347.13;;;1.44;97.27
38038;BME280;23843;51.320;12.340;2022-11-21T08:10:14;99352.16;;;1.50;98.00
38038;BME280;23843;51.320;12.340;2022-11-21T08:12:40;99351.97;;;1.56;99.44
38038;BME280;23843;51.320;12.340;2022-11-21T08:15:06;99358.66;;;1.63;99.67
38038;BME280;23843;51.320;12.340;2022-11-21T08:17:31;99355.06;;;1.67;98.96
38038;BME280;23843;51.320;12.340;2022-11-21T08:19:57;99370.84;;;1.64;97.64
38038;BME280;23843;51.320;12.340;2022-11-21T08:22:24;99364.00;;;1.60;97.42
38038;BME280;23843;51.320;12.340;2022-11-21T08:24:49;99371.13;;;1.55;96.55
38038;BME280;23843;51.320;12.340;2022-11-21T08:27:15;99364.84;;;1.61;98.66
38038;BME280;23843;51.320;12.340;2022-11-21T08:29:40;99360.44;;;1.63;97.26
38038;BME280;23843;51.320;12.340;2022-11-21T08:32:06;99357.09;;;1.59;97.01
38038;BME280;23843;51.320;12.340;2022-11-21T08:34:31;99364.00;;;1.60;97.36
38038;BME280;23843;51.320;12.340;2022-11-21T08:36:57;99368.34;;;1.61;97.41
38038;BME280;23843;51.320;12.340;2022-11-21T08:39:23;99379.66;;;1.60;96.89
38038;BME280;23843;51.320;12.340;2022-11-21T08:41:49;99384.88;;;1.60;96.97
38038;BME280;23843;51.320;12.340;2022-11-21T08:44:14;99382.56;;;1.51;95.70
38038;BME280;23843;51.320;12.340;2022-11-21T08:46:40;99388.81;;;1.47;95.95
38038;BME280;23843;51.320;12.340;2022-11-21T08:49:06;99383.50;;;1.50;97.16
38038;BME280;23843;51.320;12.340;2022-11-21T08:51:32;99386.78;;;1.55;97.37
38038;BME280;23843;51.320;12.340;2022-11-21T08:53:58;99393.63;;;1.59;97.11
38038;BME280;23843;51.320;12.340;2022-11-21T08:56:25;99388.34;;;1.61;97.90
38038;BME280;23843;51.320;12.340;2022-11-21T08:58:51;99385.81;;;1.59;97.01
38038;BME280;23843;51.320;12.340;2022-11-21T09:01:16;99391.13;;;1.56;96.46
38038;BME280;23843;51.320;12.340;2022-11-21T09:03:41;99386.91;;;1.52;96.73
38038;BME280;23843;51.320;12.340;2022-11-21T09:06:07;99391.06;;;1.58;97.92
38038;BME280;23843;51.320;12.340;2022-11-21T09:08:32;99385.91;;;1.56;96.66
38038;BME280;23843;51.320;12.340;2022-11-21T09:11:02;99391.97;;;1.57;97.19
38038;BME280;23843;51.320;12.340;2022-11-21T09:13:30;99397.69;;;1.68;98.40
38038;BME280;23843;51.320;12.340;2022-11-21T09:15:56;99390.50;;;1.75;97.73
38038;BME280;23843;51.320;12.340;2022-11-21T09:18:22;99391.16;;;1.81;98.59
38038;BME280;23843;51.320;12.340;2022-11-21T09:20:47;99398.94;;;1.83;97.73
38038;BME280;23843;51.320;12.340;2022-11-21T09:23:14;99403.44;;;1.78;95.09
38038;BME280;23843;51.320;12.340;2022-11-21T09:25:40;99404.63;;;1.69;94.69
38038;BME280;23843;51.320;12.340;2022-11-21T09:28:08;99407.28;;;1.67;95.35
38038;BME280;23843;51.320;12.340;2022-11-21T09:30:35;99416.84;;;1.68;96.30
38038;BME280;23843;51.320;12.340;2022-11-21T09:33:01;99414.22;;;1.68;95.79
38038;BME280;23843;51.320;12.340;2022-11-21T09:35:27;99417.63;;;1.70;96.20
38038;BME280;23843;51.320;12.340;2022-11-21T09:37:52;99427.16;;;1.71;96.66
38038;BME280;23843;51.320;12.340;2022-11-21T09:40:18;99425.25;;;1.77;96.39
38038;BME280;23843;51.320;12.340;2022-11-21T09:42:53;99432.00;;;1.84;96.51
38038;BME280;23843;51.320;12.340;2022-11-21T09:45:25;99424.03;;;1.87;96.05
38038;BME280;23843;51.320;12.340;2022-11-21T09:47:54;99417.75;;;1.92;96.12
38038;BME280;23843;51.320;12.340;2022-11-21T09:50:26;99416.75;;;1.97;96.76
38038;BME280;23843;51.320;12.340;2022-11-21T09:52:57;99413.94;;;2.03;96.27
38038;BME280;23843;51.320;12.340;2022-11-21T09:55:31;99409.34;;;2.09;95.77
38038;BME280;23843;51.320;12.340;2022-11-21T09:58:03;99412.56;;;2.18;96.56
38038;BME280;23843;51.320;12.340;2022-11-21T10:00:29;99412.84;;;2.33;97.18
38038;BME280;23843;51.320;12.340;2022-11-21T10:02:57;99425.75;;;2.38;95.13
38038;BME280;23843;51.320;12.340;2022-11-21T10:05:31;99424.13;;;2.35;93.98
38038;BME280;23843;51.320;12.340;2022-11-21T10:08:02;99420.78;;;2.32;94.03
38038;BME280;23843;51.320;12.340;2022-11-21T10:10:51;99424.34;;;2.29;95.05
38038;BME280;23843;51.320;12.340;2022-11-21T10:13:27;99422.69;;;2.27;94.80
38038;BME280;23843;51.320;12.340;2022-11-21T10:15:59;99427.00;;;2.28;95.69
38038;BME280;23843;51.320;12.340;2022-11-21T10:18:56;99426.09;;;2.29;95.10
38038;BME280;23843;51.320;12.340;2022-11-21T10:21:57;99426.03;;;2.30;95.07
38038;BME280;23843;51.320;12.340;2022-11-21T10:24:38;99426.00;;;2.32;94.77
38038;BME280;23843;51.320;12.340;2022-11-21T10:27:11;99419.97;;;2.30;94.52
38038;BME280;23843;51.320;12.340;2022-11-21T10:29:41;99419.69;;;2.38;94.56
38038;BME280;23843;51.320;12.340;2022-11-21T10:32:16;99419.69;;;2.38;93.77
38038;BME280;23843;51.320;12.340;2022-11-21T10:34:45;99421.91;;;2.48;95.75
38038;BME280;23843;51.320;12.340;2022-11-21T10:37:15;99422.50;;;2.56;94.85
38038;BME280;23843;51.320;12.340;2022-11-21T10:39:45;99407.53;;;2.60;94.72
38038;BME280;23843;51.320;12.340;2022-11-21T10:42:17;99416.16;;;2.64;93.91
38038;BME280;23843;51.320;12.340;2022-11-21T10:44:51;99414.13;;;2.70;93.73
38038;BME280;23843;51.320;12.340;2022-11-21T10:47:18;99411.59;;;2.69;92.76
38038;BME280;23843;51.320;12.340;2022-11-21T10:49:45;99406.25;;;2.72;91.90
38038;BME280;23843;51.320;12.340;2022-11-21T10:52:14;99407.03;;;2.74;92.47
38038;BME280;23843;51.320;12.340;2022-11-21T10:55:07;99400.88;;;2.75;90.91
38038;BME280;23843;51.320;12.340;2022-11-21T10:57:38;99397.38;;;2.76;90.61
38038;BME280;23843;51.320;12.340;2022-11-21T11:00:14;99391.00;;;2.83;91.27
38038;BME280;23843;51.320;12.340;2022-11-21T11:02:42;99392.53;;;2.89;91.43
38038;BME280;23843;51.320;12.340;2022-11-21T11:05:24;99396.66;;;2.94;90.46
38038;BME280;23843;51.320;12.340;2022-11-21T11:08:01;99399.41;;;2.91;90.32
38038;BME280;23843;51.320;12.340;2022-11-21T11:10:28;99395.28;;;2.86;89.73
38038;BME280;23843;51.320;12.340;2022-11-21T11:12:54;99391.84;;;2.84;90.86
38038;BME280;23843;51.320;12.340;2022-11-21T11:15:22;99398.22;;;2.76;89.71
38038;BME280;23843;51.320;12.340;2022-11-21T11:17:55;99398.44;;;2.70;89.23
38038;BME280;23843;51.320;12.340;2022-11-21T11:20:33;99395.22;;;2.64;89.36
38038;BME280;23843;51.320;12.340;2022-11-21T11:22:59;99395.78;;;2.72;92.92
38038;BME280;23843;51.320;12.340;2022-11-21T11:25:25;99391.22;;;2.77;91.06
38038;BME280;23843;51.320;12.340;2022-11-21T11:27:50;99393.28;;;2.69;90.02
38038;BME280;23843;51.320;12.340;2022-11-21T11:30:17;99389.88;;;2.67;90.33
38038;BME280;23843;51.320;12.340;2022-11-21T11:32:43;99382.84;;;2.69;90.67
38038;BME280;23843;51.320;12.340;2022-11-21T11:35:20;99380.22;;;2.69;90.13
38038;BME280;23843;51.320;12.340;2022-11-21T11:37:52;99385.28;;;2.73;91.51
38038;BME280;23843;51.320;12.340;2022-11-21T11:40:24;99383.88;;;2.87;93.87
38038;BME280;23843;51.320;12.340;2022-11-21T11:43:13;99383.38;;;3.00;93.90
38038;BME280;23843;51.320;12.340;2022-11-21T11:45:54;99387.75;;;3.00;91.48
38038;BME280;23843;51.320;12.340;2022-11-21T11:48:24;99382.25;;;3.06;91.90
38038;BME280;23843;51.320;12.340;2022-11-21T11:50:54;99374.13;;;3.14;90.59
38038;BME280;23843;51.320;12.340;2022-11-21T11:53:23;99375.84;;;3.15;90.31
38038;BME280;23843;51.320;12.340;2022-11-21T11:55:52;99372.78;;;3.04;88.68
38038;BME280;23843;51.320;12.340;2022-11-21T11:58:25;99384.03;;;3.06;91.30
38038;BME280;23843;51.320;12.340;2022-11-21T12:00:58;99375.03;;;3.13;90.96
38038;BME280;23843;51.320;12.340;2022-11-21T12:03:30;99381.28;;;3.09;89.41
38038;BME280;23843;51.320;12.340;2022-11-21T12:06:03;99385.72;;;3.07;88.96
38038;BME280;23843;51.320;12.340;2022-11-21T12:08:38;99388.44;;;3.05;89.27
38038;BME280;23843;51.320;12.340;2022-11-21T12:11:12;99380.63;;;3.04;90.54
38038;BME280;23843;51.320;12.340;2022-11-21T12:13:40;99381.16;;;3.12;90.06
38038;BME280;23843;51.320;12.340;2022-11-21T12:16:11;99370.03;;;3.07;88.00
38038;BME280;23843;51.320;12.340;2022-11-21T12:18:46;99368.66;;;2.98;88.21
38038;BME280;23843;51.320;12.340;2022-11-21T12:21:14;99372.31;;;2.92;89.68
38038;BME280;23843;51.320;12.340;2022-11-21T12:23:45;99360.72;;;2.99;92.00
38038;BME280;23843;51.320;12.340;2022-11-21T12:26:20;99370.38;;;2.97;91.01
38038;BME280;23843;51.320;12.340;2022-11-21T12:29:01;99371.16;;;2.77;88.95
38038;BME280;23843;51.320;12.340;2022-11-21T12:31:37;99368.41;;;2.59;88.74
38038;BME280;23843;51.320;12.340;2022-11-21T12:34:17;99362.41;;;2.55;91.02
38038;BME280;23843;51.320;12.340;2022-11-21T12:36:53;99367.59;;;2.56;91.30
38038;BME280;23843;51.320;12.340;2022-11-21T12:42:26;99368.66;;;2.51;92.00
38038;BME280;23843;51.320;12.340;2022-11-21T12:45:05;99358.03;;;2.55;92.49
38038;BME280;23843;51.320;12.340;2022-11-21T12:47:50;99356.34;;;2.54;92.49
38038;BME280;23843;51.320;12.340;2022-11-21T12:50:24;99354.19;;;2.42;90.63
38038;BME280;23843;51.320;12.340;2022-11-21T12:52:55;99354.34;;;2.38;91.67
38038;BME280;23843;51.320;12.340;2022-11-21T12:55:30;99344.53;;;2.44;93.64
38038;BME280;23843;51.320;12.340;2022-11-21T12:58:17;99341.78;;;2.47;92.17
38038;BME280;23843;51.320;12.340;2022-11-21T13:00:57;99349.34;;;2.55;92.68
38038;BME280;23843;51.320;12.340;2022-11-21T13:03:44;99351.00;;;2.57;92.83
38038;BME280;23843;51.320;12.340;2022-11-21T13:06:14;99343.28;;;2.54;92.94
38038;BME280;23843;51.320;12.340;2022-11-21T13:08:41;99345.09;;;2.52;92.79
38038;BME280;23843;51.320;12.340;2022-11-21T13:11:15;99336.50;;;2.49;92.75
38038;BME280;23843;51.320;12.340;2022-11-21T13:13:47;99331.00;;;2.56;94.09
38038;BME280;23843;51.320;12.340;2022-11-21T13:16:17;99320.88;;;2.47;92.06
38038;BME280;23843;51.320;12.340;2022-11-21T13:18:45;99314.38;;;2.34;92.63
38038;BME280;23843;51.320;12.340;2022-11-21T13:21:40;99311.34;;;2.23;93.56
38038;BME280;23843;51.320;12.340;2022-11-21T13:24:06;99300.03;;;2.22;94.26
38038;BME280;23843;51.320;12.340;2022-11-21T13:26:51;99297.75;;;2.13;93.67
38038;BME280;23843;51.320;12.340;2022-11-21T13:29:18;99295.19;;;2.11;95.15
38038;BME280;23843;51.320;12.340;2022-11-21T13:31:43;99293.94;;;1.98;93.95
38038;BME280;23843;51.320;12.340;2022-11-21T13:34:35;99298.13;;;2.02;95.44
38038;BME280;23843;51.320;12.340;2022-11-21T13:37:02;99297.13;;;2.06;95.34
38038;BME280;23843;51.320;12.340;2022-11-21T13:39:29;99290.66;;;2.17;96.52
38038;BME280;23843;51.320;12.340;2022-11-21T13:42:14;99294.75;;;2.24;95.83
38038;BME280;23843;51.320;12.340;2022-11-21T13:44:40;99291.53;;;2.17;94.59
38038;BME280;23843;51.320;12.340;2022-11-21T13:47:10;99293.41;;;2.12;95.27
38038;BME280;23843;51.320;12.340;2022-11-21T13:49:43;99284.34;;;1.99;95.26
38038;BME280;23843;51.320;12.340;2022-11-21T13:52:23;99289.72;;;1.94;96.12
38038;BME280;23843;51.320;12.340;2022-11-21T13:55:07;99288.72;;;1.98;96.39
38038;BME280;23843;51.320;12.340;2022-11-21T13:57:51;99283.78;;;1.90;95.77
38038;BME280;23843;51.320;12.340;2022-11-21T14:00:40;99283.34;;;1.78;96.75
38038;BME280;23843;51.320;12.340;2022-11-21T14:03:38;99284.31;;;1.75;97.38
38038;BME280;23843;51.320;12.340;2022-11-21T14:06:30;99288.03;;;1.68;96.38
38038;BME280;23843;51.320;12.340;2022-11-21T14:09:17;99294.16;;;1.67;97.39
38038;BME280;23843;51.320;12.340;2022-11-21T14:11:45;99287.06;;;1.70;97.28
38038;BME280;23843;51.320;12.340;2022-11-21T14:14:22;99288.84;;;1.70;97.30
38038;BME280;23843;51.320;12.340;2022-11-21T14:16:52;99287.19;;;1.67;97.20
38038;BME280;23843;51.320;12.340;2022-11-21T14:19:23;99283.50;;;1.73;97.41
38038;BME280;23843;51.320;12.340;2022-11-21T14:21:49;99291.44;;;1.70;97.88
38038;BME280;23843;51.320;12.340;2022-11-21T14:24:17;99278.22;;;1.75;98.20
38038;BME280;23843;51.320;12.340;2022-11-21T14:26:44;99277.53;;;1.69;96.74
38038;BME280;23843;51.320;12.340;2022-11-21T14:29:23;99270.63;;;1.68;97.34
38038;BME280;23843;51.320;12.340;2022-11-21T14:31:49;99281.44;;;1.58;95.73
38038;BME280;23843;51.320;12.340;2022-11-21T14:34:23;99276.31;;;1.55;96.59
38038;BME280;23843;51.320;12.340;2022-11-21T14:36:49;99267.09;;;1.44;96.96
38038;BME280;23843;51.320;12.340;2022-11-21T14:39:15;99272.38;;;1.43;97.22
38038;BME280;23843;51.320;12.340;2022-11-21T14:41:42;99265.53;;;1.39;97.07
38038;BME280;23843;51.320;12.340;2022-11-21T14:44:20;99267.38;;;1.37;98.01
38038;BME280;23843;51.320;12.340;2022-11-21T14:46:46;99270.69;;;1.42;98.20
38038;BME280;23843;51.320;12.340;2022-11-21T14:49:25;99268.81;;;1.45;98.61
38038;BME280;23843;51.320;12.340;2022-11-21T14:51:56;99259.06;;;1.50;98.50
38038;BME280;23843;51.320;12.340;2022-11-21T14:54:25;99260.78;;;1.52;98.80
38038;BME280;23843;51.320;12.340;2022-11-21T14:56:56;99262.84;;;1.42;99.08
38038;BME280;23843;51.320;12.340;2022-11-21T14:59:25;99264.81;;;1.35;99.89
38038;BME280;23843;51.320;12.340;2022-11-21T15:01:56;99261.34;;;1.35;99.71
38038;BME280;23843;51.320;12.340;2022-11-21T15:04:26;99263.97;;;1.35;100.00
38038;BME280;23843;51.320;12.340;2022-11-21T15:06:53;99256.03;;;1.38;100.00
38038;BME280;23843;51.320;12.340;2022-11-21T15:09:18;99258.41;;;1.44;100.00
38038;BME280;23843;51.320;12.340;2022-11-21T15:11:49;99252.41;;;1.42;99.37
38038;BME280;23843;51.320;12.340;2022-11-21T15:14:21;99265.34;;;1.45;100.00
38038;BME280;23843;51.320;12.340;2022-11-21T15:16:51;99260.81;;;1.50;100.00
38038;BME280;23843;51.320;12.340;2022-11-21T15:19:19;99266.72;;;1.55;100.00
38038;BME280;23843;51.320;12.340;2022-11-21T15:21:45;99265.88;;;1.55;99.99
38038;BME280;23843;51.320;12.340;2022-11-21T15:24:18;99260.00;;;1.48;99.42
38038;BME280;23843;51.320;12.340;2022-11-21T15:26:51;99260.31;;;1.39;99.67
38038;BME280;23843;51.320;12.340;2022-11-21T15:29:18;99249.97;;;1.37;100.00
38038;BME280;23843;51.320;12.340;2022-11-21T15:31:44;99250.94;;;1.33;100.00
38038;BME280;23843;51.320;12.340;2022-11-21T15:34:11;99242.97;;;1.38;100.00
38038;BME280;23843;51.320;12.340;2022-11-21T15:36:36;99258.31;;;1.47;100.00
38038;BME280;23843;51.320;12.340;2022-11-21T15:39:03;99260.69;;;1.53;100.00
38038;BME280;23843;51.320;12.340;2022-11-21T15:41:30;99255.31;;;1.58;100.00
38038;BME280;23843;51.320;12.340;2022-11-21T15:44:17;99247.75;;;1.50;99.69
38038;BME280;23843;51.320;12.340;2022-11-21T15:46:43;99251.44;;;1.44;100.00
38038;BME280;23843;51.320;12.340;2022-11-21T15:49:11;99238.34;;;1.46;100.00
38038;BME280;23843;51.320;12.340;2022-11-21T15:51:39;99244.16;;;1.54;100.00
38038;BME280;23843;51.320;12.340;2022-11-21T15:54:05;99235.09;;;1.64;100.00
38038;BME280;23843;51.320;12.340;2022-11-21T15:56:32;99220.28;;;1.65;99.58
38038;BME280;23843;51.320;12.340;2022-11-21T15:58:57;99223.88;;;1.61;99.39
38038;BME280;23843;51.320;12.340;2022-11-21T16:03:50;99211.72;;;1.61;99.38
38038;BME280;23843;51.320;12.340;2022-11-21T16:06:18;99203.75;;;1.64;100.00
38038;BME280;23843;51.320;12.340;2022-11-21T16:08:44;99201.19;;;1.63;99.43
38038;BME280;23843;51.320;12.340;2022-11-21T16:11:15;99199.38;;;1.65;100.00
38038;BME280;23843;51.320;12.340;2022-11-21T16:13:42;99195.25;;;1.59;99.48
38038;BME280;23843;51.320;12.340;2022-11-21T16:16:09;99199.03;;;1.50;99.71
38038;BME280;23843;51.320;12.340;2022-11-21T16:18:35;99186.81;;;1.51;100.00
38038;BME280;23843;51.320;12.340;2022-11-21T16:21:05;99180.72;;;1.52;100.00
38038;BME280;23843;51.320;12.340;2022-11-21T16:23:32;99178.22;;;1.49;100.00
38038;BME280;23843;51.320;12.340;2022-11-21T16:25:58;99170.72;;;1.40;100.00
38038;BME280;23843;51.320;12.340;2022-11-21T16:28:23;99169.50;;;1.25;100.00
38038;BME280;23843;51.320;12.340;2022-11-21T16:30:49;99164.59;;;1.16;100.00
38038;BME280;23843;51.320;12.340;2022-11-21T16:33:14;99159.84;;;1.02;100.00
38038;BME280;23843;51.320;12.340;2022-11-21T16:35:39;99153.56;;;0.82;100.00
38038;BME280;23843;51.320;12.340;2022-11-21T16:38:06;99153.81;;;0.75;100.00
38038;BME280;23843;51.320;12.340;2022-11-21T16:40:32;99160.19;;;0.66;100.00
38038;BME280;23843;51.320;12.340;2022-11-21T16:43:06;99159.44;;;0.62;100.00
38038;BME280;23843;51.320;12.340;2022-11-21T16:45:32;99149.97;;;0.60;100.00
38038;BME280;23843;51.320;12.340;2022-11-21T16:47:57;99144.84;;;0.57;100.00
38038;BME280;23843;51.320;12.340;2022-11-21T16:50:23;99150.81;;;0.60;100.00
38038;BME280;23843;51.320;12.340;2022-11-21T16:52:48;99137.91;;;0.56;100.00
38038;BME280;23843;51.320;12.340;2022-11-21T16:55:13;99148.66;;;0.47;100.00
38038;BME280;23843;51.320;12.340;2022-11-21T16:57:40;99153.97;;;0.43;100.00
38038;BME280;23843;51.320;12.340;2022-11-21T17:00:07;99150.50;;;0.43;100.00
38038;BME280;23843;51.320;12.340;2022-11-21T17:02:35;99161.06;;;0.38;100.00
38038;BME280;23843;51.320;12.340;2022-11-21T17:05:01;99156.53;;;0.45;100.00
38038;BME280;23843;51.320;12.340;2022-11-21T17:07:26;99145.97;;;0.50;100.00
38038;BME280;23843;51.320;12.340;2022-11-21T17:09:52;99147.66;;;0.51;100.00
38038;BME280;23843;51.320;12.340;2022-11-21T17:12:17;99141.59;;;0.50;100.00
38038;BME280;23843;51.320;12.340;2022-11-21T17:14:45;99139.53;;;0.60;100.00
38038;BME280;23843;51.320;12.340;2022-11-21T17:17:11;99132.53;;;0.62;100.00
38038;BME280;23843;51.320;12.340;2022-11-21T17:19:36;99137.38;;;0.73;100.00
38038;BME280;23843;51.320;12.340;2022-11-21T17:22:02;99127.00;;;0.71;100.00
38038;BME280;23843;51.320;12.340;2022-11-21T17:24:27;99129.78;;;0.67;100.00
38038;BME280;23843;51.320;12.340;2022-11-21T17:26:53;99139.34;;;0.66;100.00
38038;BME280;23843;51.320;12.340;2022-11-21T17:29:18;99133.25;;;0.66;100.00
38038;BME280;23843;51.320;12.340;2022-11-21T17:31:45;99128.13;;;0.64;100.00
38038;BME280;23843;51.320;12.340;2022-11-21T17:34:10;99130.72;;;0.64;100.00
38038;BME280;23843;51.320;12.340;2022-11-21T17:36:36;99121.25;;;0.61;100.00
38038;BME280;23843;51.320;12.340;2022-11-21T17:39:01;99112.75;;;0.56;100.00
38038;BME280;23843;51.320;12.340;2022-11-21T17:41:27;99113.72;;;0.52;100.00
38038;BME280;23843;51.320;12.340;2022-11-21T17:43:53;99111.88;;;0.56;100.00
38038;BME280;23843;51.320;12.340;2022-11-21T17:46:19;99115.50;;;0.52;100.00
38038;BME280;23843;51.320;12.340;2022-11-21T17:48:50;99116.50;;;0.48;100.00
38038;BME280;23843;51.320;12.340;2022-11-21T17:51:18;99109.63;;;0.45;100.00
38038;BME280;23843;51.320;12.340;2022-11-21T17:53:46;99105.34;;;0.44;100.00
38038;BME280;23843;51.320;12.340;2022-11-21T17:56:14;99102.72;;;0.44;100.00
38038;BME280;23843;51.320;12.340;2022-11-21T17:58:40;99095.06;;;0.39;100.00
38038;BME280;23843;51.320;12.340;2022-11-21T18:01:07;99092.53;;;0.36;100.00
38038;BME280;23843;51.320;12.340;2022-11-21T18:03:33;99076.97;;;0.35;100.00
38038;BME280;23843;51.320;12.340;2022-11-21T18:06:00;99073.31;;;0.40;100.00
38038;BME280;23843;51.320;12.340;2022-11-21T18:08:28;99055.91;;;0.41;100.00
38038;BME280;23843;51.320;12.340;2022-11-21T18:10:54;99063.09;;;0.34;100.00
38038;BME280;23843;51.320;12.340;2022-11-21T18:13:19;99058.91;;;0.29;100.00
38038;BME280;23843;51.320;12.340;2022-11-21T18:15:45;99047.75;;;0.25;100.00
38038;BME280;23843;51.320;12.340;2022-11-21T18:18:10;99045.28;;;0.22;100.00
38038;BME280;23843;51.320;12.340;2022-11-21T18:20:36;99038.44;;;0.18;100.00
38038;BME280;23843;51.320;12.340;2022-11-21T18:23:02;99025.34;;;0.19;100.00
38038;BME280;23843;51.320;12.340;2022-11-21T18:25:28;99019.56;;;0.11;100.00
38038;BME280;23843;51.320;12.340;2022-11-21T18:27:53;99022.28;;;0.08;100.00
38038;BME280;23843;51.320;12.340;2022-11-21T18:30:19;99009.19;;;0.10;100.00
38038;BME280;23843;51.320;12.340;2022-11-21T18:32:47;99004.09;;;0.07;100.00
38038;BME280;23843;51.320;12.340;2022-11-21T18:35:14;98995.31;;;0.09;100.00
38038;BME280;23843;51.320;12.340;2022-11-21T18:37:40;98991.06;;;0.07;100.00
38038;BME280;23843;51.320;12.340;2022-11-21T18:40:08;98988.47;;;0.07;100.00
38038;BME280;23843;51.320;12.340;2022-11-21T18:42:34;98977.31;;;0.03;100.00
38038;BME280;23843;51.320;12.340;2022-11-21T18:44:59;98983.25;;;0.07;100.00